sensor_id;sensor_type;location;lat;lon;timestamp;P1;durP1;ratioP1;P2;durP2;ratioP2
43042;SDS011;28667;50.758;6.096;2023-03-02T00:01:51;6.35;;;3.30;;
43042;SDS011;28667;50.758;6.096;2023-03-02T00:04:26;8.15;;;3.08;;
43042;SDS011;28667;50.758;6.096;2023-03-02T00:06:59;5.85;;;2.60;;
43042;SDS011;28667;50.758;6.096;2023-03-02T00:09:28;7.78;;;3.17;;
43042;SDS011;28667;50.758;6.096;2023-03-02T00:11:54;5.53;;;2.75;;
43042;SDS011;28667;50.758;6.096;2023-03-02T00:14:20;5.63;;;3.30;;
43042;SDS011;28667;50.758;6.096;2023-03-02T00:16:46;6.15;;;3.25;;
43042;SDS011;28667;50.758;6.096;2023-03-02T00:19:12;9.23;;;4.18;;
43042;SDS011;28667;50.758;6.096;2023-03-02T00:21:37;7.95;;;3.20;;
43042;SDS011;28667;50.758;6.096;2023-03-02T00:24:05;9.38;;;3.70;;
43042;SDS011;28667;50.758;6.096;2023-03-02T00:26:34;7.47;;;4.03;;
43042;SDS011;28667;50.758;6.096;2023-03-02T00:29:01;5.60;;;3.60;;
43042;SDS011;28667;50.758;6.096;2023-03-02T00:31:27;6.57;;;3.53;;
43042;SDS011;28667;50.758;6.096;2023-03-02T00:33:53;5.53;;;3.53;;
43042;SDS011;28667;50.758;6.096;2023-03-02T00:36:19;5.57;;;3.10;;
43042;SDS011;28667;50.758;6.096;2023-03-02T00:38:46;7.18;;;3.85;;
43042;SDS011;28667;50.758;6.096;2023-03-02T00:41:12;10.82;;;3.53;;
43042;SDS011;28667;50.758;6.096;2023-03-02T00:43:39;5.50;;;3.55;;
43042;SDS011;28667;50.758;6.096;2023-03-02T00:46:12;9.00;;;3.22;;
43042;SDS011;28667;50.758;6.096;2023-03-02T00:48:40;6.13;;;2.50;;
43042;SDS011;28667;50.758;6.096;2023-03-02T00:51:07;5.70;;;3.08;;
43042;SDS011;28667;50.758;6.096;2023-03-02T00:53:34;7.05;;;2.92;;
43042;SDS011;28667;50.758;6.096;2023-03-02T00:56:00;5.28;;;3.10;;
43042;SDS011;28667;50.758;6.096;2023-03-02T00:58:27;7.40;;;3.08;;
43042;SDS011;28667;50.758;6.096;2023-03-02T01:00:55;4.55;;;2.53;;
43042;SDS011;28667;50.758;6.096;2023-03-02T01:03:21;6.20;;;3.15;;
43042;SDS011;28667;50.758;6.096;2023-03-02T01:05:47;5.82;;;2.40;;
43042;SDS011;28667;50.758;6.096;2023-03-02T01:08:13;9.40;;;3.35;;
43042;SDS011;28667;50.758;6.096;2023-03-02T01:10:39;6.07;;;3.42;;
43042;SDS011;28667;50.758;6.096;2023-03-02T01:13:05;13.98;;;4.75;;
43042;SDS011;28667;50.758;6.096;2023-03-02T01:15:32;6.05;;;2.95;;
43042;SDS011;28667;50.758;6.096;2023-03-02T01:17:59;8.98;;;3.58;;
43042;SDS011;28667;50.758;6.096;2023-03-02T01:20:25;3.20;;;2.33;;
43042;SDS011;28667;50.758;6.096;2023-03-02T01:22:51;4.68;;;2.97;;
43042;SDS011;28667;50.758;6.096;2023-03-02T01:25:17;8.05;;;3.70;;
43042;SDS011;28667;50.758;6.096;2023-03-02T01:27:43;8.73;;;3.20;;
43042;SDS011;28667;50.758;6.096;2023-03-02T01:30:09;5.30;;;3.13;;
43042;SDS011;28667;50.758;6.096;2023-03-02T01:32:36;4.97;;;2.92;;
43042;SDS011;28667;50.758;6.096;2023-03-02T01:35:01;4.38;;;2.47;;
43042;SDS011;28667;50.758;6.096;2023-03-02T01:37:27;8.55;;;3.40;;
43042;SDS011;28667;50.758;6.096;2023-03-02T01:39:53;4.72;;;2.90;;
43042;SDS011;28667;50.758;6.096;2023-03-02T01:42:19;5.63;;;3.00;;
43042;SDS011;28667;50.758;6.096;2023-03-02T01:44:45;6.53;;;2.78;;
43042;SDS011;28667;50.758;6.096;2023-03-02T01:50:00;7.63;;;3.20;;
43042;SDS011;28667;50.758;6.096;2023-03-02T01:52:30;8.77;;;3.40;;
43042;SDS011;28667;50.758;6.096;2023-03-02T01:55:00;5.57;;;2.97;;
43042;SDS011;28667;50.758;6.096;2023-03-02T01:57:31;8.32;;;3.72;;
43042;SDS011;28667;50.758;6.096;2023-03-02T02:00:09;3.78;;;2.85;;
43042;SDS011;28667;50.758;6.096;2023-03-02T02:02:57;8.32;;;2.90;;
43042;SDS011;28667;50.758;6.096;2023-03-02T02:05:34;6.97;;;3.30;;
43042;SDS011;28667;50.758;6.096;2023-03-02T02:08:02;4.78;;;2.78;;
43042;SDS011;28667;50.758;6.096;2023-03-02T02:10:29;7.43;;;3.88;;
43042;SDS011;28667;50.758;6.096;2023-03-02T02:12:56;8.40;;;3.63;;
43042;SDS011;28667;50.758;6.096;2023-03-02T02:15:21;4.30;;;2.35;;
43042;SDS011;28667;50.758;6.096;2023-03-02T02:17:47;5.63;;;3.03;;
43042;SDS011;28667;50.758;6.096;2023-03-02T02:25:55;5.93;;;2.80;;
43042;SDS011;28667;50.758;6.096;2023-03-02T02:31:08;2.95;;;1.88;;
43042;SDS011;28667;50.758;6.096;2023-03-02T02:33:36;6.93;;;2.78;;
43042;SDS011;28667;50.758;6.096;2023-03-02T02:36:06;7.53;;;2.75;;
43042;SDS011;28667;50.758;6.096;2023-03-02T02:38:37;8.07;;;2.63;;
43042;SDS011;28667;50.758;6.096;2023-03-02T02:41:05;5.82;;;3.60;;
43042;SDS011;28667;50.758;6.096;2023-03-02T02:43:37;6.85;;;3.08;;
43042;SDS011;28667;50.758;6.096;2023-03-02T02:46:04;8.10;;;2.97;;
43042;SDS011;28667;50.758;6.096;2023-03-02T02:48:30;12.80;;;2.95;;
43042;SDS011;28667;50.758;6.096;2023-03-02T02:50:57;6.18;;;3.42;;
43042;SDS011;28667;50.758;6.096;2023-03-02T02:53:29;6.25;;;2.03;;
43042;SDS011;28667;50.758;6.096;2023-03-02T02:56:36;4.25;;;2.25;;
43042;SDS011;28667;50.758;6.096;2023-03-02T02:59:06;5.63;;;2.70;;
43042;SDS011;28667;50.758;6.096;2023-03-02T03:01:48;9.18;;;2.92;;
43042;SDS011;28667;50.758;6.096;2023-03-02T03:04:19;5.70;;;3.45;;
43042;SDS011;28667;50.758;6.096;2023-03-02T03:06:49;5.35;;;2.40;;
43042;SDS011;28667;50.758;6.096;2023-03-02T03:09:20;8.75;;;3.15;;
43042;SDS011;28667;50.758;6.096;2023-03-02T03:11:48;6.28;;;2.85;;
43042;SDS011;28667;50.758;6.096;2023-03-02T03:14:18;5.78;;;2.47;;
43042;SDS011;28667;50.758;6.096;2023-03-02T03:17:06;7.43;;;2.85;;
43042;SDS011;28667;50.758;6.096;2023-03-02T03:19:39;6.13;;;3.20;;
43042;SDS011;28667;50.758;6.096;2023-03-02T03:22:07;4.13;;;2.88;;
43042;SDS011;28667;50.758;6.096;2023-03-02T03:24:36;8.77;;;3.03;;
43042;SDS011;28667;50.758;6.096;2023-03-02T03:27:03;10.23;;;2.72;;
43042;SDS011;28667;50.758;6.096;2023-03-02T03:29:32;10.88;;;3.40;;
43042;SDS011;28667;50.758;6.096;2023-03-02T03:32:01;6.35;;;2.55;;
43042;SDS011;28667;50.758;6.096;2023-03-02T03:34:28;4.95;;;3.08;;
43042;SDS011;28667;50.758;6.096;2023-03-02T03:36:55;8.93;;;3.60;;
43042;SDS011;28667;50.758;6.096;2023-03-02T03:39:28;3.10;;;2.75;;
43042;SDS011;28667;50.758;6.096;2023-03-02T03:41:54;9.23;;;3.15;;
43042;SDS011;28667;50.758;6.096;2023-03-02T03:44:20;5.70;;;2.53;;
43042;SDS011;28667;50.758;6.096;2023-03-02T03:46:46;5.45;;;3.53;;
43042;SDS011;28667;50.758;6.096;2023-03-02T03:49:12;7.15;;;2.80;;
43042;SDS011;28667;50.758;6.096;2023-03-02T03:51:38;12.82;;;3.40;;
43042;SDS011;28667;50.758;6.096;2023-03-02T03:54:05;5.80;;;2.92;;
43042;SDS011;28667;50.758;6.096;2023-03-02T03:56:39;8.00;;;3.45;;
43042;SDS011;28667;50.758;6.096;2023-03-02T03:59:10;8.55;;;2.45;;
43042;SDS011;28667;50.758;6.096;2023-03-02T04:02:00;6.88;;;3.83;;
43042;SDS011;28667;50.758;6.096;2023-03-02T04:04:32;4.47;;;2.83;;
43042;SDS011;28667;50.758;6.096;2023-03-02T04:07:00;7.90;;;3.45;;
43042;SDS011;28667;50.758;6.096;2023-03-02T04:09:27;3.95;;;2.28;;
43042;SDS011;28667;50.758;6.096;2023-03-02T04:11:54;6.15;;;3.20;;
43042;SDS011;28667;50.758;6.096;2023-03-02T04:14:21;10.05;;;3.60;;
43042;SDS011;28667;50.758;6.096;2023-03-02T04:16:49;6.05;;;3.08;;
43042;SDS011;28667;50.758;6.096;2023-03-02T04:19:16;8.60;;;3.13;;
43042;SDS011;28667;50.758;6.096;2023-03-02T04:21:46;4.63;;;2.67;;
43042;SDS011;28667;50.758;6.096;2023-03-02T04:24:15;5.40;;;2.85;;
43042;SDS011;28667;50.758;6.096;2023-03-02T04:26:43;3.17;;;2.72;;
43042;SDS011;28667;50.758;6.096;2023-03-02T04:29:10;5.53;;;2.75;;
43042;SDS011;28667;50.758;6.096;2023-03-02T04:31:37;9.55;;;3.15;;
43042;SDS011;28667;50.758;6.096;2023-03-02T04:34:04;6.35;;;2.70;;
43042;SDS011;28667;50.758;6.096;2023-03-02T04:36:32;6.15;;;3.20;;
43042;SDS011;28667;50.758;6.096;2023-03-02T04:39:02;6.25;;;2.78;;
43042;SDS011;28667;50.758;6.096;2023-03-02T04:41:29;7.90;;;2.70;;
43042;SDS011;28667;50.758;6.096;2023-03-02T04:43:55;5.50;;;2.92;;
43042;SDS011;28667;50.758;6.096;2023-03-02T04:46:22;7.05;;;3.25;;
43042;SDS011;28667;50.758;6.096;2023-03-02T04:48:50;7.53;;;3.80;;
43042;SDS011;28667;50.758;6.096;2023-03-02T04:51:17;9.98;;;3.10;;
43042;SDS011;28667;50.758;6.096;2023-03-02T04:53:51;5.05;;;2.30;;
43042;SDS011;28667;50.758;6.096;2023-03-02T04:56:18;6.65;;;2.42;;
43042;SDS011;28667;50.758;6.096;2023-03-02T04:58:44;5.00;;;3.08;;
43042;SDS011;28667;50.758;6.096;2023-03-02T05:01:10;8.63;;;3.92;;
43042;SDS011;28667;50.758;6.096;2023-03-02T05:03:36;9.60;;;3.72;;
43042;SDS011;28667;50.758;6.096;2023-03-02T05:06:02;4.45;;;2.80;;
43042;SDS011;28667;50.758;6.096;2023-03-02T05:08:29;6.85;;;3.10;;
43042;SDS011;28667;50.758;6.096;2023-03-02T05:10:55;4.63;;;2.60;;
43042;SDS011;28667;50.758;6.096;2023-03-02T05:13:22;4.15;;;2.65;;
43042;SDS011;28667;50.758;6.096;2023-03-02T05:15:49;5.43;;;2.72;;
43042;SDS011;28667;50.758;6.096;2023-03-02T05:18:15;6.78;;;3.03;;
43042;SDS011;28667;50.758;6.096;2023-03-02T05:20:42;6.50;;;3.72;;
43042;SDS011;28667;50.758;6.096;2023-03-02T05:23:08;6.35;;;3.53;;
43042;SDS011;28667;50.758;6.096;2023-03-02T05:25:36;7.10;;;3.03;;
43042;SDS011;28667;50.758;6.096;2023-03-02T05:28:02;5.30;;;3.15;;
43042;SDS011;28667;50.758;6.096;2023-03-02T05:30:28;6.22;;;2.95;;
43042;SDS011;28667;50.758;6.096;2023-03-02T05:32:56;4.57;;;2.10;;
43042;SDS011;28667;50.758;6.096;2023-03-02T05:35:23;3.22;;;2.35;;
43042;SDS011;28667;50.758;6.096;2023-03-02T05:37:49;7.82;;;3.17;;
43042;SDS011;28667;50.758;6.096;2023-03-02T05:40:16;5.95;;;2.58;;
43042;SDS011;28667;50.758;6.096;2023-03-02T05:42:43;4.65;;;2.80;;
43042;SDS011;28667;50.758;6.096;2023-03-02T05:45:17;8.60;;;3.25;;
43042;SDS011;28667;50.758;6.096;2023-03-02T05:47:46;5.05;;;2.13;;
43042;SDS011;28667;50.758;6.096;2023-03-02T05:50:12;5.70;;;3.17;;
43042;SDS011;28667;50.758;6.096;2023-03-02T05:52:37;5.03;;;3.28;;
43042;SDS011;28667;50.758;6.096;2023-03-02T05:55:03;3.88;;;2.20;;
43042;SDS011;28667;50.758;6.096;2023-03-02T05:57:29;5.15;;;2.50;;
43042;SDS011;28667;50.758;6.096;2023-03-02T05:59:55;4.47;;;2.95;;
43042;SDS011;28667;50.758;6.096;2023-03-02T06:02:21;8.48;;;3.40;;
43042;SDS011;28667;50.758;6.096;2023-03-02T06:04:46;3.30;;;2.60;;
43042;SDS011;28667;50.758;6.096;2023-03-02T06:07:12;7.57;;;3.13;;
43042;SDS011;28667;50.758;6.096;2023-03-02T06:09:38;4.43;;;3.08;;
43042;SDS011;28667;50.758;6.096;2023-03-02T06:12:05;5.15;;;2.67;;
43042;SDS011;28667;50.758;6.096;2023-03-02T06:14:32;5.20;;;2.83;;
43042;SDS011;28667;50.758;6.096;2023-03-02T06:16:59;11.55;;;4.05;;
43042;SDS011;28667;50.758;6.096;2023-03-02T06:19:24;10.75;;;4.18;;
43042;SDS011;28667;50.758;6.096;2023-03-02T06:21:50;9.13;;;4.93;;
43042;SDS011;28667;50.758;6.096;2023-03-02T06:24:16;8.60;;;3.40;;
43042;SDS011;28667;50.758;6.096;2023-03-02T06:26:42;8.65;;;3.08;;
43042;SDS011;28667;50.758;6.096;2023-03-02T06:29:08;7.70;;;4.32;;
43042;SDS011;28667;50.758;6.096;2023-03-02T06:31:33;5.28;;;3.90;;
43042;SDS011;28667;50.758;6.096;2023-03-02T06:33:59;6.97;;;3.60;;
43042;SDS011;28667;50.758;6.096;2023-03-02T06:36:25;5.82;;;3.78;;
43042;SDS011;28667;50.758;6.096;2023-03-02T06:38:51;9.40;;;3.65;;
43042;SDS011;28667;50.758;6.096;2023-03-02T06:41:17;8.65;;;3.72;;
43042;SDS011;28667;50.758;6.096;2023-03-02T06:43:43;8.85;;;4.53;;
43042;SDS011;28667;50.758;6.096;2023-03-02T06:46:09;8.13;;;4.13;;
43042;SDS011;28667;50.758;6.096;2023-03-02T06:48:35;5.05;;;3.17;;
43042;SDS011;28667;50.758;6.096;2023-03-02T06:51:01;9.68;;;3.90;;
43042;SDS011;28667;50.758;6.096;2023-03-02T06:53:27;6.10;;;3.03;;
43042;SDS011;28667;50.758;6.096;2023-03-02T06:55:53;6.95;;;3.08;;
43042;SDS011;28667;50.758;6.096;2023-03-02T06:58:19;6.97;;;3.08;;
43042;SDS011;28667;50.758;6.096;2023-03-02T07:00:47;5.82;;;3.28;;
43042;SDS011;28667;50.758;6.096;2023-03-02T07:03:13;8.02;;;3.42;;
43042;SDS011;28667;50.758;6.096;2023-03-02T07:05:40;8.32;;;4.32;;
43042;SDS011;28667;50.758;6.096;2023-03-02T07:08:06;11.20;;;4.57;;
43042;SDS011;28667;50.758;6.096;2023-03-02T07:10:31;10.07;;;4.78;;
43042;SDS011;28667;50.758;6.096;2023-03-02T07:12:57;11.52;;;4.18;;
43042;SDS011;28667;50.758;6.096;2023-03-02T07:15:23;15.73;;;4.97;;
43042;SDS011;28667;50.758;6.096;2023-03-02T07:17:49;8.23;;;3.92;;
43042;SDS011;28667;50.758;6.096;2023-03-02T07:20:16;13.82;;;4.82;;
43042;SDS011;28667;50.758;6.096;2023-03-02T07:22:42;7.57;;;4.40;;
43042;SDS011;28667;50.758;6.096;2023-03-02T07:25:09;9.02;;;4.05;;
43042;SDS011;28667;50.758;6.096;2023-03-02T07:27:36;6.13;;;3.38;;
43042;SDS011;28667;50.758;6.096;2023-03-02T07:30:02;11.73;;;3.28;;
43042;SDS011;28667;50.758;6.096;2023-03-02T07:32:29;10.35;;;4.60;;
43042;SDS011;28667;50.758;6.096;2023-03-02T07:34:55;12.82;;;4.50;;
43042;SDS011;28667;50.758;6.096;2023-03-02T07:37:20;9.90;;;4.25;;
43042;SDS011;28667;50.758;6.096;2023-03-02T07:39:47;9.00;;;4.38;;
43042;SDS011;28667;50.758;6.096;2023-03-02T07:42:13;14.07;;;5.05;;
43042;SDS011;28667;50.758;6.096;2023-03-02T07:44:43;9.13;;;4.20;;
43042;SDS011;28667;50.758;6.096;2023-03-02T07:47:08;13.55;;;5.43;;
43042;SDS011;28667;50.758;6.096;2023-03-02T07:49:34;12.18;;;4.32;;
43042;SDS011;28667;50.758;6.096;2023-03-02T07:52:01;8.32;;;4.72;;
43042;SDS011;28667;50.758;6.096;2023-03-02T07:54:27;12.55;;;4.72;;
43042;SDS011;28667;50.758;6.096;2023-03-02T07:56:55;13.55;;;4.70;;
43042;SDS011;28667;50.758;6.096;2023-03-02T07:59:22;9.00;;;3.67;;
43042;SDS011;28667;50.758;6.096;2023-03-02T08:01:48;11.35;;;4.45;;
43042;SDS011;28667;50.758;6.096;2023-03-02T08:04:13;19.52;;;4.20;;
43042;SDS011;28667;50.758;6.096;2023-03-02T08:06:39;8.20;;;3.72;;
43042;SDS011;28667;50.758;6.096;2023-03-02T08:09:05;10.63;;;4.13;;
43042;SDS011;28667;50.758;6.096;2023-03-02T08:11:31;10.32;;;5.07;;
43042;SDS011;28667;50.758;6.096;2023-03-02T08:14:00;11.18;;;3.85;;
43042;SDS011;28667;50.758;6.096;2023-03-02T08:16:27;9.20;;;4.03;;
43042;SDS011;28667;50.758;6.096;2023-03-02T08:18:54;7.38;;;3.33;;
43042;SDS011;28667;50.758;6.096;2023-03-02T08:21:21;7.57;;;3.85;;
43042;SDS011;28667;50.758;6.096;2023-03-02T08:23:48;9.50;;;4.47;;
43042;SDS011;28667;50.758;6.096;2023-03-02T08:26:15;6.78;;;3.22;;
43042;SDS011;28667;50.758;6.096;2023-03-02T08:28:42;9.77;;;3.90;;
43042;SDS011;28667;50.758;6.096;2023-03-02T08:31:08;10.30;;;4.55;;
43042;SDS011;28667;50.758;6.096;2023-03-02T08:33:34;7.75;;;4.40;;
43042;SDS011;28667;50.758;6.096;2023-03-02T08:36:02;9.63;;;4.15;;
43042;SDS011;28667;50.758;6.096;2023-03-02T08:38:30;4.53;;;3.70;;
43042;SDS011;28667;50.758;6.096;2023-03-02T08:40:56;10.20;;;4.70;;
43042;SDS011;28667;50.758;6.096;2023-03-02T08:43:22;8.85;;;3.25;;
43042;SDS011;28667;50.758;6.096;2023-03-02T08:45:53;10.63;;;4.05;;
43042;SDS011;28667;50.758;6.096;2023-03-02T08:48:21;7.45;;;3.92;;
43042;SDS011;28667;50.758;6.096;2023-03-02T08:53:25;4.75;;;3.33;;
43042;SDS011;28667;50.758;6.096;2023-03-02T08:55:51;10.32;;;4.80;;
43042;SDS011;28667;50.758;6.096;2023-03-02T08:58:17;7.70;;;4.07;;
43042;SDS011;28667;50.758;6.096;2023-03-02T09:00:43;10.73;;;5.28;;
43042;SDS011;28667;50.758;6.096;2023-03-02T09:03:09;12.05;;;3.80;;
43042;SDS011;28667;50.758;6.096;2023-03-02T09:05:35;16.95;;;4.93;;
43042;SDS011;28667;50.758;6.096;2023-03-02T09:08:01;12.20;;;4.97;;
43042;SDS011;28667;50.758;6.096;2023-03-02T09:10:28;5.50;;;3.75;;
43042;SDS011;28667;50.758;6.096;2023-03-02T09:12:53;14.57;;;4.88;;
43042;SDS011;28667;50.758;6.096;2023-03-02T09:15:19;9.80;;;3.78;;
43042;SDS011;28667;50.758;6.096;2023-03-02T09:17:45;11.25;;;4.53;;
43042;SDS011;28667;50.758;6.096;2023-03-02T09:20:11;11.10;;;4.10;;
43042;SDS011;28667;50.758;6.096;2023-03-02T09:22:38;9.20;;;4.70;;
43042;SDS011;28667;50.758;6.096;2023-03-02T09:25:05;11.27;;;4.72;;
43042;SDS011;28667;50.758;6.096;2023-03-02T09:27:31;6.20;;;4.03;;
43042;SDS011;28667;50.758;6.096;2023-03-02T09:29:57;8.30;;;4.43;;
43042;SDS011;28667;50.758;6.096;2023-03-02T09:32:23;12.30;;;4.20;;
43042;SDS011;28667;50.758;6.096;2023-03-02T09:34:49;6.30;;;4.05;;
43042;SDS011;28667;50.758;6.096;2023-03-02T09:37:15;8.02;;;4.25;;
43042;SDS011;28667;50.758;6.096;2023-03-02T09:39:40;8.30;;;4.70;;
43042;SDS011;28667;50.758;6.096;2023-03-02T09:45:15;8.68;;;3.47;;
43042;SDS011;28667;50.758;6.096;2023-03-02T09:50:33;5.35;;;3.70;;
43042;SDS011;28667;50.758;6.096;2023-03-02T09:55:35;7.53;;;3.78;;
43042;SDS011;28667;50.758;6.096;2023-03-02T09:58:07;8.25;;;4.18;;
43042;SDS011;28667;50.758;6.096;2023-03-02T10:00:40;7.57;;;3.58;;
43042;SDS011;28667;50.758;6.096;2023-03-02T10:03:21;15.70;;;5.35;;
43042;SDS011;28667;50.758;6.096;2023-03-02T10:05:50;10.90;;;4.53;;
43042;SDS011;28667;50.758;6.096;2023-03-02T10:08:22;7.40;;;4.68;;
43042;SDS011;28667;50.758;6.096;2023-03-02T10:10:58;9.80;;;5.13;;
43042;SDS011;28667;50.758;6.096;2023-03-02T10:21:44;9.07;;;4.13;;
43042;SDS011;28667;50.758;6.096;2023-03-02T10:26:58;11.20;;;4.15;;
43042;SDS011;28667;50.758;6.096;2023-03-02T10:34:44;10.07;;;4.63;;
43042;SDS011;28667;50.758;6.096;2023-03-02T10:37:10;12.60;;;5.82;;
43042;SDS011;28667;50.758;6.096;2023-03-02T10:39:52;9.45;;;4.63;;
43042;SDS011;28667;50.758;6.096;2023-03-02T10:42:22;9.95;;;4.43;;
43042;SDS011;28667;50.758;6.096;2023-03-02T10:44:56;11.55;;;4.88;;
43042;SDS011;28667;50.758;6.096;2023-03-02T10:48:25;13.05;;;4.72;;
43042;SDS011;28667;50.758;6.096;2023-03-02T10:50:44;12.05;;;5.00;;
43042;SDS011;28667;50.758;6.096;2023-03-02T10:53:17;6.93;;;3.85;;
43042;SDS011;28667;50.758;6.096;2023-03-02T10:55:48;13.05;;;5.13;;
43042;SDS011;28667;50.758;6.096;2023-03-02T10:58:29;6.20;;;3.42;;
43042;SDS011;28667;50.758;6.096;2023-03-02T11:01:00;6.18;;;4.13;;
43042;SDS011;28667;50.758;6.096;2023-03-02T11:03:30;10.98;;;4.53;;
43042;SDS011;28667;50.758;6.096;2023-03-02T11:05:57;10.80;;;4.22;;
43042;SDS011;28667;50.758;6.096;2023-03-02T11:08:25;11.32;;;4.63;;
43042;SDS011;28667;50.758;6.096;2023-03-02T11:11:02;11.98;;;4.10;;
43042;SDS011;28667;50.758;6.096;2023-03-02T11:13:30;9.55;;;4.53;;
43042;SDS011;28667;50.758;6.096;2023-03-02T11:16:03;9.85;;;4.78;;
43042;SDS011;28667;50.758;6.096;2023-03-02T11:21:16;9.20;;;3.97;;
43042;SDS011;28667;50.758;6.096;2023-03-02T11:24:10;9.73;;;4.75;;
43042;SDS011;28667;50.758;6.096;2023-03-02T11:26:46;10.60;;;4.72;;
43042;SDS011;28667;50.758;6.096;2023-03-02T11:31:51;13.13;;;5.53;;
43042;SDS011;28667;50.758;6.096;2023-03-02T11:42:33;12.32;;;4.88;;
43042;SDS011;28667;50.758;6.096;2023-03-02T11:47:37;9.48;;;4.68;;
43042;SDS011;28667;50.758;6.096;2023-03-02T11:50:05;8.95;;;5.05;;
43042;SDS011;28667;50.758;6.096;2023-03-02T11:52:35;11.88;;;5.55;;
43042;SDS011;28667;50.758;6.096;2023-03-02T11:55:25;10.25;;;5.72;;
43042;SDS011;28667;50.758;6.096;2023-03-02T11:57:53;9.02;;;4.35;;
43042;SDS011;28667;50.758;6.096;2023-03-02T12:00:36;6.95;;;4.03;;
43042;SDS011;28667;50.758;6.096;2023-03-02T12:05:42;11.60;;;5.30;;
43042;SDS011;28667;50.758;6.096;2023-03-02T12:11:04;11.68;;;5.30;;
43042;SDS011;28667;50.758;6.096;2023-03-02T12:13:43;10.65;;;5.32;;
43042;SDS011;28667;50.758;6.096;2023-03-02T12:16:20;9.05;;;4.78;;
43042;SDS011;28667;50.758;6.096;2023-03-02T12:22:04;10.85;;;5.30;;
43042;SDS011;28667;50.758;6.096;2023-03-02T12:24:34;13.48;;;5.65;;
43042;SDS011;28667;50.758;6.096;2023-03-02T12:29:44;6.90;;;4.63;;
43042;SDS011;28667;50.758;6.096;2023-03-02T12:34:52;9.88;;;5.68;;
43042;SDS011;28667;50.758;6.096;2023-03-02T12:37:25;8.63;;;5.03;;
43042;SDS011;28667;50.758;6.096;2023-03-02T12:40:06;12.05;;;5.07;;
43042;SDS011;28667;50.758;6.096;2023-03-02T12:46:10;11.35;;;5.00;;
43042;SDS011;28667;50.758;6.096;2023-03-02T12:48:45;13.15;;;5.45;;
43042;SDS011;28667;50.758;6.096;2023-03-02T12:51:18;10.07;;;5.43;;
43042;SDS011;28667;50.758;6.096;2023-03-02T12:54:00;9.02;;;4.55;;
43042;SDS011;28667;50.758;6.096;2023-03-02T12:56:37;9.13;;;4.75;;
43042;SDS011;28667;50.758;6.096;2023-03-02T12:59:03;12.25;;;4.93;;
43042;SDS011;28667;50.758;6.096;2023-03-02T13:01:30;14.52;;;5.43;;
43042;SDS011;28667;50.758;6.096;2023-03-02T13:03:57;10.25;;;4.72;;
43042;SDS011;28667;50.758;6.096;2023-03-02T13:06:25;10.07;;;4.95;;
43042;SDS011;28667;50.758;6.096;2023-03-02T13:08:54;11.32;;;5.43;;
43042;SDS011;28667;50.758;6.096;2023-03-02T13:11:31;9.00;;;4.95;;
43042;SDS011;28667;50.758;6.096;2023-03-02T13:13:59;10.48;;;5.13;;
43042;SDS011;28667;50.758;6.096;2023-03-02T13:16:28;9.63;;;4.63;;
43042;SDS011;28667;50.758;6.096;2023-03-02T13:18:57;12.40;;;4.72;;
43042;SDS011;28667;50.758;6.096;2023-03-02T13:21:29;10.00;;;4.57;;
43042;SDS011;28667;50.758;6.096;2023-03-02T13:23:57;11.13;;;5.68;;
43042;SDS011;28667;50.758;6.096;2023-03-02T13:26:33;10.63;;;4.57;;
43042;SDS011;28667;50.758;6.096;2023-03-02T13:31:28;14.13;;;5.75;;
43042;SDS011;28667;50.758;6.096;2023-03-02T13:33:56;10.05;;;5.00;;
43042;SDS011;28667;50.758;6.096;2023-03-02T13:36:43;9.25;;;5.43;;
43042;SDS011;28667;50.758;6.096;2023-03-02T13:39:14;6.63;;;4.38;;
43042;SDS011;28667;50.758;6.096;2023-03-02T13:41:54;9.32;;;4.55;;
43042;SDS011;28667;50.758;6.096;2023-03-02T13:44:29;13.73;;;5.95;;
43042;SDS011;28667;50.758;6.096;2023-03-02T13:46:57;8.60;;;5.28;;
43042;SDS011;28667;50.758;6.096;2023-03-02T13:49:30;8.00;;;4.65;;
43042;SDS011;28667;50.758;6.096;2023-03-02T13:54:29;9.50;;;4.32;;
43042;SDS011;28667;50.758;6.096;2023-03-02T13:56:57;11.57;;;5.15;;
43042;SDS011;28667;50.758;6.096;2023-03-02T13:59:25;9.07;;;4.70;;
43042;SDS011;28667;50.758;6.096;2023-03-02T14:01:51;9.60;;;4.65;;
43042;SDS011;28667;50.758;6.096;2023-03-02T14:04:18;8.95;;;5.05;;
43042;SDS011;28667;50.758;6.096;2023-03-02T14:06:47;8.55;;;4.57;;
43042;SDS011;28667;50.758;6.096;2023-03-02T14:09:16;14.75;;;4.63;;
43042;SDS011;28667;50.758;6.096;2023-03-02T14:11:44;13.82;;;5.32;;
43042;SDS011;28667;50.758;6.096;2023-03-02T14:14:20;9.77;;;4.70;;
43042;SDS011;28667;50.758;6.096;2023-03-02T14:16:47;8.88;;;4.68;;
43042;SDS011;28667;50.758;6.096;2023-03-02T14:19:14;6.68;;;4.35;;
43042;SDS011;28667;50.758;6.096;2023-03-02T14:21:43;10.43;;;5.35;;
43042;SDS011;28667;50.758;6.096;2023-03-02T14:24:10;10.10;;;5.00;;
43042;SDS011;28667;50.758;6.096;2023-03-02T14:26:37;16.10;;;5.30;;
43042;SDS011;28667;50.758;6.096;2023-03-02T14:29:21;7.85;;;4.40;;
43042;SDS011;28667;50.758;6.096;2023-03-02T14:31:47;13.05;;;5.30;;
43042;SDS011;28667;50.758;6.096;2023-03-02T14:34:13;9.00;;;4.05;;
43042;SDS011;28667;50.758;6.096;2023-03-02T14:36:40;8.75;;;4.85;;
43042;SDS011;28667;50.758;6.096;2023-03-02T14:39:51;10.73;;;4.57;;
43042;SDS011;28667;50.758;6.096;2023-03-02T14:44:30;9.80;;;4.57;;
43042;SDS011;28667;50.758;6.096;2023-03-02T14:46:56;8.98;;;4.53;;
43042;SDS011;28667;50.758;6.096;2023-03-02T14:49:22;8.07;;;4.75;;
43042;SDS011;28667;50.758;6.096;2023-03-02T14:52:10;8.48;;;4.93;;
43042;SDS011;28667;50.758;6.096;2023-03-02T14:57:12;9.38;;;3.72;;
43042;SDS011;28667;50.758;6.096;2023-03-02T14:59:41;10.23;;;4.00;;
43042;SDS011;28667;50.758;6.096;2023-03-02T15:02:08;10.18;;;4.47;;
43042;SDS011;28667;50.758;6.096;2023-03-02T15:04:35;9.02;;;4.28;;
43042;SDS011;28667;50.758;6.096;2023-03-02T15:07:01;5.50;;;3.47;;
43042;SDS011;28667;50.758;6.096;2023-03-02T15:09:27;8.40;;;4.53;;
43042;SDS011;28667;50.758;6.096;2023-03-02T15:11:52;6.13;;;4.55;;
43042;SDS011;28667;50.758;6.096;2023-03-02T15:14:18;8.55;;;4.30;;
43042;SDS011;28667;50.758;6.096;2023-03-02T15:16:44;8.82;;;4.57;;
43042;SDS011;28667;50.758;6.096;2023-03-02T15:19:09;8.57;;;4.00;;
43042;SDS011;28667;50.758;6.096;2023-03-02T15:21:35;18.35;;;4.65;;
43042;SDS011;28667;50.758;6.096;2023-03-02T15:24:01;11.35;;;4.32;;
43042;SDS011;28667;50.758;6.096;2023-03-02T15:26:27;9.07;;;3.72;;
43042;SDS011;28667;50.758;6.096;2023-03-02T15:28:52;10.13;;;3.85;;
43042;SDS011;28667;50.758;6.096;2023-03-02T15:31:18;10.88;;;4.22;;
43042;SDS011;28667;50.758;6.096;2023-03-02T15:33:45;7.45;;;3.60;;
43042;SDS011;28667;50.758;6.096;2023-03-02T15:36:11;7.85;;;3.03;;
43042;SDS011;28667;50.758;6.096;2023-03-02T15:38:38;8.18;;;3.70;;
43042;SDS011;28667;50.758;6.096;2023-03-02T15:41:07;7.10;;;3.65;;
43042;SDS011;28667;50.758;6.096;2023-03-02T15:43:36;4.63;;;3.53;;
43042;SDS011;28667;50.758;6.096;2023-03-02T15:46:02;6.88;;;3.67;;
43042;SDS011;28667;50.758;6.096;2023-03-02T15:48:30;6.75;;;3.80;;
43042;SDS011;28667;50.758;6.096;2023-03-02T15:50:59;7.00;;;3.83;;
43042;SDS011;28667;50.758;6.096;2023-03-02T15:53:27;5.40;;;3.10;;
43042;SDS011;28667;50.758;6.096;2023-03-02T15:55:54;8.70;;;3.90;;
43042;SDS011;28667;50.758;6.096;2023-03-02T15:58:20;8.35;;;4.03;;
43042;SDS011;28667;50.758;6.096;2023-03-02T16:00:46;9.15;;;4.18;;
43042;SDS011;28667;50.758;6.096;2023-03-02T16:03:17;6.97;;;3.88;;
43042;SDS011;28667;50.758;6.096;2023-03-02T16:05:43;3.22;;;2.70;;
43042;SDS011;28667;50.758;6.096;2023-03-02T16:08:09;5.07;;;3.10;;
43042;SDS011;28667;50.758;6.096;2023-03-02T16:10:35;6.75;;;3.38;;
43042;SDS011;28667;50.758;6.096;2023-03-02T16:13:04;11.68;;;3.92;;
43042;SDS011;28667;50.758;6.096;2023-03-02T16:15:35;8.00;;;3.60;;